createdAt,value
2018-02-06T00:00:28.334Z,0.00
2018-02-06T00:02:20.129Z,0.00
2018-02-06T00:03:20.044Z,0.00
2018-02-06T00:05:11.847Z,0.00
2018-02-06T00:06:11.764Z,0.00
2018-02-06T00:08:03.565Z,0.00
2018-02-06T00:09:03.484Z,0.00
2018-02-06T00:10:55.226Z,0.00
2018-02-06T00:11:55.149Z,0.00
2018-02-06T00:13:46.898Z,0.00
2018-02-06T00:14:46.808Z,0.00
2018-02-06T00:16:38.570Z,0.00
2018-02-06T00:17:38.520Z,0.00
2018-02-06T00:19:30.280Z,0.00
2018-02-06T00:20:30.235Z,0.00
2018-02-06T00:22:21.941Z,0.00
2018-02-06T00:23:21.866Z,0.00
2018-02-06T00:25:13.634Z,0.00
2018-02-06T00:26:13.536Z,0.00
2018-02-06T00:28:05.316Z,0.00
2018-02-06T00:29:05.214Z,0.00
2018-02-06T00:30:56.985Z,0.00
2018-02-06T00:31:56.891Z,0.00
2018-02-06T00:33:48.754Z,0.00
2018-02-06T00:34:48.668Z,0.00
2018-02-06T00:36:40.433Z,0.00
2018-02-06T00:37:40.402Z,0.00
2018-02-06T00:39:32.117Z,0.00
2018-02-06T00:40:32.034Z,0.00
2018-02-06T00:42:23.827Z,0.00
2018-02-06T00:43:23.832Z,0.00
2018-02-06T00:45:15.746Z,0.00
2018-02-06T00:46:15.551Z,0.00
2018-02-06T00:48:07.376Z,0.00
2018-02-06T00:49:07.243Z,0.00
2018-02-06T00:50:58.988Z,0.00
2018-02-06T00:51:58.931Z,0.00
2018-02-06T00:53:50.708Z,0.00
2018-02-06T00:54:50.608Z,0.00
2018-02-06T00:56:42.303Z,0.00
2018-02-06T00:57:42.236Z,0.00
2018-02-06T00:59:34.101Z,0.00
2018-02-06T01:00:34.013Z,0.00
2018-02-06T01:02:26.361Z,0.00
2018-02-06T01:03:25.631Z,0.00
2018-02-06T01:05:17.385Z,0.00
2018-02-06T01:06:17.401Z,0.00
2018-02-06T01:08:09.119Z,0.00
2018-02-06T01:09:08.999Z,0.00
2018-02-06T01:11:00.794Z,0.00
2018-02-06T01:12:00.759Z,0.00
2018-02-06T01:13:52.431Z,0.00
2018-02-06T01:14:52.366Z,0.00
2018-02-06T01:16:44.314Z,0.00
2018-02-06T01:17:44.027Z,0.00
2018-02-06T01:19:35.868Z,0.00
2018-02-06T01:20:35.761Z,0.00
2018-02-06T01:22:27.503Z,0.00
2018-02-06T01:23:27.438Z,0.00
2018-02-06T01:25:19.165Z,0.00
2018-02-06T01:26:19.096Z,0.00
2018-02-06T01:28:10.984Z,0.00
2018-02-06T01:29:10.920Z,0.00
2018-02-06T01:31:02.705Z,0.00
2018-02-06T01:32:02.644Z,0.00
2018-02-06T01:33:54.442Z,0.00
2018-02-06T01:34:54.276Z,0.00
2018-02-06T01:36:46.116Z,0.00
2018-02-06T01:37:45.969Z,0.00
2018-02-06T01:39:37.861Z,0.00
2018-02-06T01:40:37.719Z,0.00
2018-02-06T01:42:29.628Z,0.00
2018-02-06T01:43:29.536Z,0.00
2018-02-06T01:45:21.330Z,0.00
2018-02-06T01:46:21.255Z,0.00
2018-02-06T01:48:13.058Z,0.00
2018-02-06T01:49:12.950Z,0.00
2018-02-06T01:51:04.702Z,0.00
2018-02-06T01:52:04.616Z,0.00
2018-02-06T01:53:56.397Z,0.00
2018-02-06T01:54:56.320Z,0.00
2018-02-06T01:56:48.079Z,0.00
2018-02-06T01:57:48.005Z,0.00
2018-02-06T01:59:39.753Z,0.00
2018-02-06T02:00:39.685Z,0.00
2018-02-06T02:02:31.442Z,0.00
2018-02-06T02:03:31.360Z,0.00
2018-02-06T02:05:23.140Z,0.00
2018-02-06T02:06:23.026Z,0.00
2018-02-06T02:08:14.847Z,0.00
2018-02-06T02:09:14.704Z,0.00
2018-02-06T02:11:06.456Z,0.00
2018-02-06T02:12:06.374Z,0.00
2018-02-06T02:13:58.124Z,0.00
2018-02-06T02:14:58.052Z,0.00
2018-02-06T02:16:49.836Z,0.00
2018-02-06T02:17:49.774Z,0.00
2018-02-06T02:19:41.493Z,0.00
2018-02-06T02:20:41.417Z,0.00
2018-02-06T02:22:33.164Z,0.00
2018-02-06T02:23:33.072Z,0.00
2018-02-06T02:25:24.842Z,0.00
2018-02-06T02:26:24.755Z,0.00
2018-02-06T02:28:16.527Z,0.00
2018-02-06T02:29:16.500Z,0.00
2018-02-06T02:31:08.184Z,0.00
2018-02-06T02:32:08.126Z,0.00
2018-02-06T02:33:59.868Z,0.00
2018-02-06T02:34:59.780Z,0.00
2018-02-06T02:36:51.551Z,0.00
2018-02-06T02:37:51.470Z,0.00
2018-02-06T02:39:43.239Z,0.00
2018-02-06T02:40:43.173Z,0.00
2018-02-06T04:39:54.184Z,0.00
2018-02-06T04:40:54.108Z,0.00
2018-02-06T04:42:45.910Z,0.00
2018-02-06T04:43:45.900Z,0.00
2018-02-06T04:45:37.547Z,0.00
2018-02-06T04:46:37.508Z,0.00
2018-02-06T04:48:29.289Z,0.00
2018-02-06T04:49:29.224Z,0.00
2018-02-06T04:51:20.945Z,0.00
2018-02-06T04:52:20.873Z,0.00
2018-02-06T04:54:12.748Z,0.00
2018-02-06T04:55:12.601Z,0.00
2018-02-06T04:57:04.354Z,0.00
2018-02-06T04:58:04.296Z,0.00
2018-02-06T04:59:56.042Z,0.00
2018-02-06T05:00:55.963Z,0.00
2018-02-06T05:02:47.716Z,0.00
2018-02-06T05:03:47.588Z,0.00
2018-02-06T05:05:39.389Z,0.00
2018-02-06T05:06:39.322Z,0.00
2018-02-06T05:08:31.260Z,0.00
2018-02-06T05:09:31.125Z,0.00
2018-02-06T05:11:22.991Z,0.00
2018-02-06T05:12:22.748Z,0.00
2018-02-06T05:14:14.519Z,0.00
2018-02-06T05:15:14.433Z,0.00
2018-02-06T05:17:06.183Z,0.00
2018-02-06T05:18:06.086Z,0.00
2018-02-06T05:19:57.849Z,0.00
2018-02-06T05:20:57.748Z,0.00
2018-02-06T05:22:49.536Z,0.00
2018-02-06T05:23:49.550Z,0.00
2018-02-06T05:25:41.211Z,0.00
2018-02-06T05:26:41.098Z,0.00
2018-02-06T05:28:32.908Z,0.00
2018-02-06T05:29:32.794Z,0.00
2018-02-06T05:31:24.574Z,0.00
2018-02-06T05:32:24.594Z,0.00
2018-02-06T05:34:16.287Z,0.00
2018-02-06T05:35:16.172Z,0.00
2018-02-06T05:37:08.036Z,0.00
2018-02-06T05:38:07.862Z,0.00
2018-02-06T05:39:59.626Z,0.00
2018-02-06T05:40:59.530Z,0.00
2018-02-06T05:42:51.272Z,0.00
2018-02-06T05:43:51.201Z,0.00
2018-02-06T05:45:43.016Z,0.00
2018-02-06T05:46:42.883Z,0.00
2018-02-06T05:48:34.709Z,0.00
2018-02-06T05:49:34.624Z,0.00
2018-02-06T05:51:26.408Z,0.00
2018-02-06T05:52:26.264Z,0.00
2018-02-06T05:54:18.035Z,0.00
2018-02-06T05:55:17.957Z,0.00
2018-02-06T05:57:09.782Z,0.00
2018-02-06T05:58:09.733Z,4.00
2018-02-06T06:00:01.489Z,0.00
2018-02-06T06:01:01.475Z,0.00
2018-02-06T06:02:53.189Z,0.00
2018-02-06T06:03:53.067Z,4.00
2018-02-06T06:05:44.900Z,4.00
2018-02-06T06:06:44.758Z,4.00
2018-02-06T06:08:36.732Z,4.00
2018-02-06T06:09:36.568Z,8.00
2018-02-06T06:11:28.327Z,8.00
2018-02-06T06:12:28.282Z,12.00
2018-02-06T06:14:20.066Z,20.00
2018-02-06T06:15:19.944Z,20.00
2018-02-06T06:17:11.705Z,28.00
2018-02-06T06:18:11.608Z,32.00
2018-02-06T06:20:03.456Z,44.00
2018-02-06T06:21:03.356Z,48.00
2018-02-06T06:22:56.848Z,64.00
2018-02-06T06:23:55.009Z,76.00
2018-02-06T06:25:46.774Z,96.00
2018-02-06T06:26:46.683Z,108.00
2018-02-06T06:28:38.428Z,140.00
2018-02-06T06:29:38.357Z,156.00
2018-02-06T06:31:30.162Z,196.00
2018-02-06T06:32:30.104Z,216.00
2018-02-06T06:34:21.901Z,264.00
2018-02-06T06:35:21.740Z,292.00
2018-02-06T06:37:13.502Z,352.00
2018-02-06T06:38:13.420Z,384.00
2018-02-06T06:40:05.181Z,456.00
2018-02-06T06:41:05.076Z,496.00
2018-02-06T06:42:56.857Z,576.00
2018-02-06T06:43:56.836Z,624.00
2018-02-06T06:45:48.632Z,724.00
2018-02-06T06:46:48.444Z,780.00
2018-02-06T06:48:40.229Z,892.00
2018-02-06T06:49:40.154Z,948.00
2018-02-06T06:51:32.232Z,1064.00
2018-02-06T06:52:32.265Z,1140.00
2018-02-06T06:54:23.964Z,1272.00
2018-02-06T06:55:23.814Z,1348.00
2018-02-06T06:57:15.681Z,1492.00
2018-02-06T06:58:15.562Z,1564.00
2018-02-06T07:00:07.474Z,1716.00
2018-02-06T07:01:07.414Z,1800.00
2018-02-06T07:02:59.952Z,1960.00
2018-02-06T07:03:59.350Z,2052.00
2018-02-06T07:05:51.138Z,2232.00
2018-02-06T07:06:51.070Z,2336.00
2018-02-06T07:08:42.981Z,2528.00
2018-02-06T07:09:42.842Z,2632.00
2018-02-06T07:11:34.618Z,2828.00
2018-02-06T07:12:34.595Z,2932.00
2018-02-06T07:14:26.276Z,3120.00
2018-02-06T07:15:26.194Z,3216.00
2018-02-06T07:17:17.981Z,3396.00
2018-02-06T07:18:17.857Z,3488.00
2018-02-06T07:20:09.635Z,3648.00
2018-02-06T07:21:09.533Z,3732.00
2018-02-06T07:23:01.307Z,3872.00
2018-02-06T07:24:01.221Z,3944.00
2018-02-06T07:25:52.958Z,4076.00
2018-02-06T07:26:52.893Z,4144.00
2018-02-06T07:28:44.643Z,4252.00
2018-02-06T07:29:44.594Z,4304.00
2018-02-06T07:31:37.132Z,4392.00
2018-02-06T07:32:36.320Z,4444.00
2018-02-06T07:34:28.277Z,4548.00
2018-02-06T07:35:27.956Z,4580.00
2018-02-06T07:37:19.845Z,4776.00
2018-02-06T07:38:19.748Z,4896.00
2018-02-06T07:40:11.543Z,5020.00
2018-02-06T07:41:11.451Z,5092.00
2018-02-06T07:43:03.438Z,5216.00
2018-02-06T07:44:03.409Z,5264.00
2018-02-06T07:45:54.974Z,5304.00
2018-02-06T07:46:54.916Z,5224.00
2018-02-06T07:48:46.645Z,5284.00
2018-02-06T07:49:46.595Z,5368.00
2018-02-06T07:51:38.503Z,5704.00
2018-02-06T07:52:38.410Z,5804.00
2018-02-06T07:54:30.047Z,6028.00
2018-02-06T07:55:29.937Z,6144.00
2018-02-06T07:57:21.988Z,6328.00
2018-02-06T07:58:21.865Z,6424.00
2018-02-06T08:00:13.834Z,14280.00
2018-02-06T08:01:13.565Z,22240.00
2018-02-06T08:03:05.572Z,23072.00
2018-02-06T08:04:05.397Z,22848.00
2018-02-06T08:05:57.175Z,25088.00
2018-02-06T08:06:57.112Z,31136.00
2018-02-06T08:08:48.863Z,33216.00
2018-02-06T08:09:48.926Z,29920.00
2018-02-06T08:11:40.566Z,30528.00
2018-02-06T08:12:40.519Z,31360.00
2018-02-06T08:14:32.374Z,22144.00
2018-02-06T08:15:32.169Z,11704.00
2018-02-06T08:17:24.149Z,27008.00
2018-02-06T08:18:24.067Z,38240.00
2018-02-06T08:20:15.923Z,42720.00
2018-02-06T08:21:15.834Z,42560.00
2018-02-06T08:23:07.594Z,45056.00
2018-02-06T08:24:07.569Z,50752.00
2018-02-06T08:25:59.681Z,52640.00
2018-02-06T08:26:59.207Z,52576.00
2018-02-06T08:28:50.978Z,47968.00
2018-02-06T08:29:50.945Z,51456.00
2018-02-06T08:31:42.672Z,52672.00
2018-02-06T08:32:42.604Z,52960.00
2018-02-06T08:34:34.447Z,49120.00
2018-02-06T08:35:34.343Z,49056.00
2018-02-06T08:37:26.256Z,54240.00
2018-02-06T08:38:26.147Z,57664.00
2018-02-06T08:40:17.907Z,62112.00
2018-02-06T08:41:17.831Z,61216.00
2018-02-06T08:43:09.651Z,62080.00
2018-02-06T08:44:09.562Z,62848.00
2018-02-06T08:46:01.525Z,61920.00
2018-02-06T08:47:01.562Z,58848.00
2018-02-06T08:48:53.378Z,62688.00
2018-02-06T08:49:53.363Z,61920.00
2018-02-06T08:51:45.077Z,64640.00
2018-02-06T08:52:44.989Z,61856.00
2018-02-06T08:54:37.129Z,60544.00
2018-02-06T08:55:36.909Z,60160.00
2018-02-06T08:57:28.803Z,58400.00
2018-02-06T08:58:28.744Z,57792.00
2018-02-06T09:00:20.491Z,58720.00
2018-02-06T09:01:20.411Z,58976.00
2018-02-06T09:03:13.418Z,58016.00
2018-02-06T09:04:13.210Z,57600.00
2018-02-06T09:06:05.524Z,56736.00
2018-02-06T09:07:05.078Z,57312.00
2018-02-06T09:08:57.929Z,54976.00
2018-02-06T09:09:57.833Z,56256.00
2018-02-06T09:11:50.802Z,58752.00
2018-02-06T09:12:50.552Z,61536.00
2018-02-06T09:14:43.551Z,57600.00
2018-02-06T09:15:43.307Z,59968.00
2018-02-06T09:17:35.189Z,60864.00
2018-02-06T09:18:35.095Z,61728.00
2018-02-06T09:20:26.935Z,66272.00
2018-02-06T09:21:26.882Z,69632.00
2018-02-06T09:23:18.772Z,65856.00
2018-02-06T09:24:18.653Z,68128.00
2018-02-06T09:26:10.509Z,67264.00
2018-02-06T09:27:10.616Z,67328.00
2018-02-06T09:29:02.233Z,68608.00
2018-02-06T09:30:02.167Z,70752.00
2018-02-06T09:31:53.901Z,67520.00
2018-02-06T09:32:53.873Z,68288.00
2018-02-06T09:34:45.766Z,66688.00
2018-02-06T09:35:45.598Z,64032.00
2018-02-06T09:37:38.473Z,61600.00
2018-02-06T09:38:38.354Z,59776.00
2018-02-06T09:40:31.459Z,60384.00
2018-02-06T09:41:31.498Z,59616.00
2018-02-06T09:43:23.894Z,63360.00
2018-02-06T09:44:23.294Z,63264.00
2018-02-06T09:46:15.040Z,64704.00
2018-02-06T09:47:15.035Z,64992.00
2018-02-06T09:49:06.887Z,62240.00
2018-02-06T09:50:06.764Z,61120.00
2018-02-06T09:51:58.608Z,60224.00
2018-02-06T09:52:58.494Z,59904.00
2018-02-06T09:54:50.319Z,61824.00
2018-02-06T09:55:50.219Z,61248.00
2018-02-06T09:57:42.060Z,63200.00
2018-02-06T09:58:41.974Z,60096.00
2018-02-06T10:00:33.903Z,60032.00
2018-02-06T10:01:33.854Z,59776.00
2018-02-06T10:03:25.627Z,58976.00
2018-02-06T10:04:25.681Z,57632.00
2018-02-06T10:06:17.402Z,48608.00
2018-02-06T10:07:17.333Z,45472.00
2018-02-06T10:09:09.278Z,43392.00
2018-02-06T10:10:09.211Z,45440.00
2018-02-06T10:12:01.105Z,55616.00
2018-02-06T10:13:01.011Z,58208.00
2018-02-06T10:14:52.908Z,58208.00
2018-02-06T10:15:52.828Z,57824.00
2018-02-06T10:17:45.644Z,55232.00
2018-02-06T10:18:45.507Z,56768.00
2018-02-06T10:20:37.491Z,57248.00
2018-02-06T10:21:37.386Z,55712.00
2018-02-06T10:23:29.416Z,55776.00
2018-02-06T10:24:29.187Z,57824.00
2018-02-06T10:26:21.041Z,56512.00
2018-02-06T10:27:21.080Z,56480.00
2018-02-06T10:29:12.718Z,55424.00
2018-02-06T10:30:12.696Z,53600.00
2018-02-06T10:32:04.513Z,51680.00
2018-02-06T10:33:04.457Z,54112.00
2018-02-06T10:34:57.370Z,53824.00
2018-02-06T10:35:57.255Z,52544.00
2018-02-06T10:37:49.076Z,49504.00
2018-02-06T10:38:49.000Z,45632.00
2018-02-06T10:40:40.870Z,49184.00
2018-02-06T10:41:40.713Z,51136.00
2018-02-06T10:43:32.595Z,37408.00
2018-02-06T10:44:32.506Z,22432.00
2018-02-06T10:46:24.237Z,13700.00
2018-02-06T10:47:24.151Z,17920.00
2018-02-06T10:49:16.022Z,24704.00
2018-02-06T10:50:15.951Z,31936.00
2018-02-06T10:52:07.742Z,50848.00
2018-02-06T10:53:07.729Z,48192.00
2018-02-06T10:54:59.682Z,32320.00
2018-02-06T10:55:59.573Z,35616.00
2018-02-06T10:57:51.824Z,47040.00
2018-02-06T10:58:51.356Z,45344.00
2018-02-06T11:00:43.148Z,39040.00
2018-02-06T11:01:43.052Z,35872.00
2018-02-06T11:03:34.874Z,39008.00
2018-02-06T11:04:34.787Z,27840.00
2018-02-06T11:06:26.602Z,13100.00
2018-02-06T11:07:26.518Z,9380.00
2018-02-06T11:09:18.286Z,10968.00
2018-02-06T11:10:18.199Z,11120.00
2018-02-06T11:12:10.021Z,11064.00
2018-02-06T11:13:09.900Z,11756.00
2018-02-06T11:15:01.949Z,10676.00
2018-02-06T11:16:01.644Z,10316.00
2018-02-06T11:17:53.417Z,10364.00
2018-02-06T11:18:53.402Z,10564.00
2018-02-06T11:20:45.090Z,9312.00
2018-02-06T11:21:45.027Z,10368.00
2018-02-06T11:23:36.776Z,11324.00
2018-02-06T11:24:36.704Z,12060.00
2018-02-06T11:26:28.496Z,12252.00
2018-02-06T11:27:28.436Z,11636.00
2018-02-06T11:29:20.225Z,10428.00
2018-02-06T11:30:20.112Z,10532.00
2018-02-06T11:32:11.924Z,13924.00
2018-02-06T11:33:11.821Z,20896.00
2018-02-06T11:35:03.743Z,14324.00
2018-02-06T11:36:03.634Z,10896.00
2018-02-06T11:37:55.394Z,20576.00
2018-02-06T11:38:55.384Z,20320.00
2018-02-06T11:40:47.196Z,9880.00
2018-02-06T11:41:47.114Z,9936.00
2018-02-06T11:43:38.919Z,9480.00
2018-02-06T11:44:38.866Z,9324.00
2018-02-06T11:46:30.567Z,9628.00
2018-02-06T11:47:30.498Z,9612.00
2018-02-06T11:49:22.377Z,9152.00
2018-02-06T11:50:22.202Z,8952.00
2018-02-06T11:52:14.133Z,9056.00
2018-02-06T11:53:14.001Z,9096.00
2018-02-06T11:55:05.783Z,8884.00
2018-02-06T11:56:05.712Z,8732.00
2018-02-06T11:57:57.505Z,8572.00
2018-02-06T11:58:57.398Z,8648.00
2018-02-06T12:00:49.201Z,8812.00
2018-02-06T12:01:49.148Z,8780.00
2018-02-06T12:03:41.018Z,8668.00
2018-02-06T12:04:40.956Z,8576.00
2018-02-06T12:06:32.681Z,8456.00
2018-02-06T12:07:32.602Z,8260.00
2018-02-06T12:09:24.400Z,7712.00
2018-02-06T12:10:24.305Z,7700.00
2018-02-06T12:12:16.108Z,7600.00
2018-02-06T12:13:15.988Z,7580.00
2018-02-06T12:15:07.798Z,7628.00
2018-02-06T12:16:07.715Z,7808.00
2018-02-06T12:17:59.636Z,8048.00
2018-02-06T12:18:59.493Z,8100.00
2018-02-06T12:20:51.364Z,8272.00
2018-02-06T12:21:51.212Z,8128.00
2018-02-06T12:23:43.111Z,8116.00
2018-02-06T12:24:42.925Z,8244.00
2018-02-06T12:26:34.767Z,8220.00
2018-02-06T12:27:34.664Z,7988.00
2018-02-06T12:29:26.477Z,8024.00
2018-02-06T12:30:26.347Z,8104.00
2018-02-06T12:32:18.196Z,8020.00
2018-02-06T12:33:18.063Z,7960.00
2018-02-06T12:35:10.013Z,7796.00
2018-02-06T12:36:09.760Z,8020.00
2018-02-06T12:38:01.604Z,8272.00
2018-02-06T12:39:01.577Z,8412.00
2018-02-06T12:40:53.401Z,8432.00
2018-02-06T12:41:53.292Z,8372.00
2018-02-06T12:43:45.096Z,8036.00
2018-02-06T12:44:45.011Z,7884.00
2018-02-06T12:46:36.976Z,7920.00
2018-02-06T12:47:36.832Z,7820.00
2018-02-06T12:49:28.656Z,7496.00
2018-02-06T12:50:28.617Z,7432.00
2018-02-06T12:52:20.483Z,7344.00
2018-02-06T12:53:20.499Z,7276.00
2018-02-06T12:55:12.291Z,7228.00
2018-02-06T12:56:12.160Z,7264.00
2018-02-06T12:58:03.965Z,7252.00
2018-02-06T12:59:03.910Z,7340.00
2018-02-06T13:00:55.670Z,7308.00
2018-02-06T13:01:55.585Z,7288.00
2018-02-06T13:03:47.370Z,7060.00
2018-02-06T13:04:47.265Z,6924.00
2018-02-06T13:06:39.082Z,6820.00
2018-02-06T13:07:38.985Z,6760.00
2018-02-06T13:09:30.764Z,6744.00
2018-02-06T13:10:30.745Z,6712.00
2018-02-06T13:12:22.443Z,6680.00
2018-02-06T13:13:22.357Z,6684.00
2018-02-06T13:15:14.167Z,6644.00
2018-02-06T13:16:14.099Z,6684.00
2018-02-06T13:18:05.859Z,6656.00
2018-02-06T13:19:05.778Z,6612.00
2018-02-06T13:20:57.622Z,6580.00
2018-02-06T13:21:57.630Z,6588.00
2018-02-06T13:23:49.346Z,6568.00
2018-02-06T13:24:49.236Z,6616.00
2018-02-06T13:26:41.010Z,6604.00
2018-02-06T13:27:40.935Z,6544.00
2018-02-06T13:29:32.693Z,6560.00
2018-02-06T13:30:32.605Z,6568.00
2018-02-06T13:32:24.502Z,6584.00
2018-02-06T13:33:24.364Z,6576.00
2018-02-06T13:35:16.048Z,6508.00
2018-02-06T13:36:15.986Z,6504.00
2018-02-06T13:38:07.756Z,6456.00
2018-02-06T13:39:07.661Z,6420.00
2018-02-06T13:40:59.609Z,6412.00
2018-02-06T13:41:59.528Z,6380.00
2018-02-06T13:43:51.309Z,6376.00
2018-02-06T13:44:51.230Z,6384.00
2018-02-06T13:46:43.013Z,6292.00
2018-02-06T13:47:42.971Z,6264.00
2018-02-06T13:49:34.766Z,6280.00
2018-02-06T13:50:34.647Z,6264.00
2018-02-06T13:52:26.448Z,6276.00
2018-02-06T13:53:26.344Z,6272.00
2018-02-06T13:55:18.248Z,6204.00
2018-02-06T13:56:18.095Z,6184.00
2018-02-06T13:58:09.829Z,6156.00
2018-02-06T13:59:09.747Z,6080.00
2018-02-06T14:01:01.517Z,6016.00
2018-02-06T14:02:01.453Z,5992.00
2018-02-06T14:03:53.172Z,5908.00
2018-02-06T14:04:53.092Z,5892.00
2018-02-06T14:06:44.950Z,5856.00
2018-02-06T14:07:44.896Z,5848.00
2018-02-06T14:09:36.599Z,5852.00
2018-02-06T14:10:36.564Z,5796.00
2018-02-06T14:12:28.321Z,5656.00
2018-02-06T14:13:28.227Z,5608.00
2018-02-06T14:15:20.062Z,5536.00
2018-02-06T14:16:19.941Z,5468.00
2018-02-06T14:18:11.745Z,5348.00
2018-02-06T14:19:11.663Z,5336.00
2018-02-06T14:21:03.491Z,5244.00
2018-02-06T14:22:03.347Z,5192.00
2018-02-06T14:23:55.146Z,5128.00
2018-02-06T14:24:55.052Z,5080.00
2018-02-06T14:26:46.794Z,5036.00
2018-02-06T14:27:46.726Z,5040.00
2018-02-06T14:29:38.519Z,5020.00
2018-02-06T14:30:38.478Z,4900.00
2018-02-06T14:32:30.213Z,4756.00
2018-02-06T14:33:30.145Z,4708.00
2018-02-06T14:35:22.008Z,4592.00
2018-02-06T14:36:21.845Z,4520.00
2018-02-06T14:38:13.642Z,4380.00
2018-02-06T14:39:13.627Z,4320.00
2018-02-06T14:41:05.366Z,4248.00
2018-02-06T14:42:05.261Z,4196.00
2018-02-06T14:43:57.327Z,4096.00
2018-02-06T14:44:57.134Z,4048.00
2018-02-06T14:46:48.928Z,3944.00
2018-02-06T14:47:48.805Z,3888.00
2018-02-06T14:49:40.576Z,3788.00
2018-02-06T14:50:40.560Z,3736.00
2018-02-06T14:52:32.438Z,3608.00
2018-02-06T14:53:32.655Z,3536.00
2018-02-06T14:55:24.137Z,3428.00
2018-02-06T14:56:24.087Z,3372.00
2018-02-06T14:58:15.838Z,3272.00
2018-02-06T14:59:15.739Z,3224.00
2018-02-06T15:01:07.603Z,3088.00
2018-02-06T15:02:07.425Z,3012.00
2018-02-06T15:03:59.812Z,2888.00
2018-02-06T15:04:59.171Z,2832.00
2018-02-06T15:06:50.903Z,2720.00
2018-02-06T15:07:50.843Z,2668.00
2018-02-06T15:09:42.574Z,2552.00
2018-02-06T15:10:42.463Z,2496.00
2018-02-06T15:12:34.261Z,2396.00
2018-02-06T15:13:34.198Z,2344.00
2018-02-06T15:15:26.584Z,2240.00
2018-02-06T15:16:25.895Z,2188.00
2018-02-06T15:18:17.653Z,2092.00
2018-02-06T15:19:17.551Z,2040.00
2018-02-06T15:21:09.550Z,1940.00
2018-02-06T15:22:09.234Z,1888.00
2018-02-06T15:24:01.050Z,1772.00
2018-02-06T15:25:00.973Z,1672.00
2018-02-06T15:26:52.700Z,1504.00
2018-02-06T15:27:52.657Z,1432.00
2018-02-06T15:29:44.351Z,1404.00
2018-02-06T15:30:44.275Z,1384.00
2018-02-06T15:32:36.163Z,1304.00
2018-02-06T15:33:35.953Z,1248.00
2018-02-06T15:35:27.740Z,1140.00
2018-02-06T15:36:27.666Z,1088.00
2018-02-06T15:38:19.568Z,1012.00
2018-02-06T15:39:19.520Z,976.00
2018-02-06T15:41:11.258Z,900.00
2018-02-06T15:42:11.192Z,860.00
2018-02-06T15:44:02.961Z,788.00
2018-02-06T15:45:02.909Z,748.00
2018-02-06T15:46:54.643Z,680.00
2018-02-06T15:47:54.568Z,640.00
2018-02-06T15:49:46.502Z,576.00
2018-02-06T15:50:46.251Z,540.00
2018-02-06T15:52:38.045Z,476.00
2018-02-06T15:53:38.120Z,444.00
2018-02-06T15:55:29.897Z,392.00
2018-02-06T15:56:29.690Z,364.00
2018-02-06T15:58:21.566Z,316.00
2018-02-06T15:59:21.405Z,288.00
2018-02-06T16:01:13.160Z,248.00
2018-02-06T16:02:13.132Z,228.00
2018-02-06T16:04:04.998Z,188.00
2018-02-06T16:05:04.816Z,172.00
2018-02-06T16:06:56.771Z,140.00
2018-02-06T16:07:56.653Z,128.00
2018-02-06T16:09:48.491Z,100.00
2018-02-06T16:10:48.371Z,88.00
2018-02-06T16:12:40.169Z,68.00
2018-02-06T16:13:40.011Z,60.00
2018-02-06T16:15:31.776Z,48.00
2018-02-06T16:16:31.722Z,40.00
2018-02-06T16:18:23.505Z,28.00
2018-02-06T16:19:23.463Z,24.00
2018-02-06T16:21:15.142Z,20.00
2018-02-06T16:22:15.059Z,16.00
2018-02-06T16:24:07.011Z,12.00
2018-02-06T16:25:06.819Z,12.00
2018-02-06T16:26:58.643Z,8.00
2018-02-06T16:27:58.531Z,4.00
2018-02-06T16:29:50.778Z,4.00
2018-02-06T16:30:50.824Z,4.00
2018-02-06T16:32:42.441Z,4.00
2018-02-06T16:33:42.371Z,4.00
2018-02-06T16:35:34.140Z,0.00
2018-02-06T16:36:34.097Z,0.00
2018-02-06T16:38:25.801Z,0.00
2018-02-06T16:39:25.763Z,0.00
2018-02-06T16:41:17.544Z,0.00
2018-02-06T16:42:17.468Z,0.00
2018-02-06T16:44:09.160Z,0.00
2018-02-06T16:45:09.073Z,0.00
2018-02-06T16:47:00.830Z,0.00
2018-02-06T16:48:00.749Z,0.00
2018-02-06T16:49:52.564Z,0.00
2018-02-06T16:50:52.446Z,0.00
2018-02-06T16:52:44.212Z,0.00
2018-02-06T16:53:44.144Z,0.00
2018-02-06T16:55:35.933Z,0.00
2018-02-06T16:56:35.890Z,0.00
2018-02-06T16:58:27.667Z,0.00
2018-02-06T16:59:27.642Z,0.00
2018-02-06T17:01:21.069Z,0.00
2018-02-06T17:02:19.254Z,0.00
2018-02-06T17:04:11.032Z,0.00
2018-02-06T17:05:10.918Z,0.00
2018-02-06T17:07:02.916Z,0.00
2018-02-06T17:08:02.612Z,0.00
2018-02-06T17:09:54.616Z,0.00
2018-02-06T17:10:54.454Z,0.00
2018-02-06T17:12:46.121Z,0.00
2018-02-06T17:13:46.040Z,0.00
2018-02-06T17:15:37.828Z,0.00
2018-02-06T17:16:37.736Z,0.00
2018-02-06T17:18:29.522Z,0.00
2018-02-06T17:19:29.425Z,0.00
2018-02-06T17:21:21.256Z,0.00
2018-02-06T17:22:21.124Z,0.00
2018-02-06T17:24:12.912Z,0.00
2018-02-06T17:25:12.828Z,0.00
2018-02-06T17:27:04.590Z,0.00
2018-02-06T17:28:04.495Z,0.00
2018-02-06T17:29:56.247Z,0.00
2018-02-06T17:30:56.318Z,0.00
2018-02-06T17:32:47.952Z,0.00
2018-02-06T17:33:47.835Z,0.00
2018-02-06T17:35:39.618Z,0.00
2018-02-06T17:36:39.509Z,0.00
2018-02-06T17:38:31.420Z,0.00
2018-02-06T17:39:31.363Z,0.00
2018-02-06T17:41:23.101Z,0.00
2018-02-06T17:42:23.002Z,0.00
2018-02-06T17:44:14.737Z,0.00
2018-02-06T17:45:14.739Z,0.00
2018-02-06T17:47:06.417Z,0.00
2018-02-06T17:48:06.329Z,0.00
2018-02-06T17:49:58.234Z,0.00
2018-02-06T17:50:58.130Z,0.00
2018-02-06T17:52:49.877Z,0.00
2018-02-06T17:53:49.797Z,0.00
2018-02-06T17:55:41.601Z,0.00
2018-02-06T17:56:41.466Z,0.00
2018-02-06T17:58:33.269Z,0.00
2018-02-06T17:59:33.173Z,0.00
2018-02-06T18:01:24.922Z,0.00
2018-02-06T18:02:24.822Z,0.00
2018-02-06T18:04:16.704Z,0.00
2018-02-06T18:05:16.515Z,0.00
2018-02-06T18:07:08.426Z,0.00
2018-02-06T18:08:08.254Z,0.00
2018-02-06T18:10:00.192Z,0.00
2018-02-06T18:10:59.951Z,0.00
2018-02-06T18:12:51.697Z,0.00
2018-02-06T18:13:51.611Z,0.00
2018-02-06T18:15:43.360Z,0.00
2018-02-06T18:16:43.298Z,0.00
2018-02-06T18:18:35.053Z,0.00
2018-02-06T18:19:34.976Z,0.00
2018-02-06T18:21:26.849Z,0.00
2018-02-06T18:22:26.671Z,0.00
2018-02-06T18:24:18.444Z,0.00
2018-02-06T18:25:18.336Z,0.00
2018-02-06T18:27:10.092Z,0.00
2018-02-06T18:28:10.098Z,0.00
2018-02-06T18:30:01.973Z,0.00
2018-02-06T18:31:01.845Z,0.00
2018-02-06T18:32:53.626Z,0.00
2018-02-06T18:33:53.544Z,0.00
2018-02-06T18:35:45.346Z,0.00
2018-02-06T18:36:45.202Z,0.00
2018-02-06T18:38:37.376Z,0.00
2018-02-06T18:39:37.165Z,0.00
2018-02-06T18:41:28.912Z,0.00
2018-02-06T18:42:28.834Z,0.00
2018-02-06T18:44:20.745Z,0.00
2018-02-06T18:45:20.584Z,0.00
2018-02-06T18:47:12.330Z,0.00
2018-02-06T18:48:12.253Z,0.00
2018-02-06T18:50:04.018Z,0.00
2018-02-06T18:51:03.933Z,0.00
2018-02-06T18:52:55.740Z,0.00
2018-02-06T18:53:55.668Z,0.00
2018-02-06T18:55:47.359Z,0.00
2018-02-06T18:56:47.276Z,0.00
2018-02-06T18:58:39.051Z,0.00
2018-02-06T18:59:38.948Z,0.00
2018-02-06T19:01:30.764Z,0.00
2018-02-06T19:02:30.739Z,0.00
2018-02-06T19:04:22.623Z,0.00
2018-02-06T19:05:22.438Z,0.00
2018-02-06T19:07:14.426Z,0.00
2018-02-06T19:08:14.176Z,0.00
2018-02-06T19:10:05.983Z,0.00
2018-02-06T19:11:05.840Z,0.00
2018-02-06T19:12:57.590Z,0.00
2018-02-06T19:13:57.518Z,0.00
2018-02-06T19:15:49.291Z,0.00
2018-02-06T19:16:49.263Z,0.00
2018-02-06T19:18:40.941Z,0.00
2018-02-06T19:19:40.869Z,0.00
2018-02-06T19:21:32.766Z,0.00
2018-02-06T19:22:32.588Z,0.00
2018-02-06T19:24:24.468Z,0.00
2018-02-06T19:25:24.393Z,0.00
2018-02-06T19:27:16.160Z,0.00
2018-02-06T19:28:16.062Z,0.00
2018-02-06T19:30:07.886Z,0.00
2018-02-06T19:31:07.824Z,0.00
2018-02-06T19:32:59.549Z,0.00
2018-02-06T19:33:59.512Z,0.00
2018-02-06T19:35:51.270Z,0.00
2018-02-06T19:36:51.173Z,0.00
2018-02-06T19:38:42.883Z,0.00
2018-02-06T19:39:42.813Z,0.00
2018-02-06T19:41:34.582Z,0.00
2018-02-06T19:42:34.479Z,0.00
2018-02-06T19:44:26.230Z,0.00
2018-02-06T19:45:26.175Z,0.00
2018-02-06T19:47:17.896Z,0.00
2018-02-06T19:48:17.810Z,0.00
2018-02-06T19:50:09.552Z,0.00
2018-02-06T19:51:09.479Z,0.00
2018-02-06T19:53:01.232Z,0.00
2018-02-06T19:54:01.153Z,0.00
2018-02-06T19:55:52.882Z,0.00